createdAt,value
2023-02-14T00:01:53.492Z,102.50
2023-02-14T00:04:20.036Z,108.20
2023-02-14T00:06:46.505Z,105.20
2023-02-14T00:09:14.938Z,112.50
2023-02-14T00:11:41.466Z,120.50
2023-02-14T00:14:26.674Z,106.00
2023-02-14T00:16:53.224Z,105.00
2023-02-14T00:19:20.151Z,118.40
2023-02-14T00:21:47.347Z,106.20
2023-02-14T00:24:15.632Z,108.00
2023-02-14T00:26:42.429Z,101.60
2023-02-14T00:29:10.236Z,104.50
2023-02-14T00:31:37.521Z,96.60
2023-02-14T00:34:04.401Z,98.60
2023-02-14T00:36:31.042Z,99.50
2023-02-14T00:38:57.471Z,95.00
2023-02-14T00:41:23.935Z,116.40
2023-02-14T00:43:51.368Z,110.25
2023-02-14T00:46:18.226Z,101.25
2023-02-14T00:48:44.734Z,112.00
2023-02-14T00:51:11.230Z,106.25
2023-02-14T00:53:37.752Z,106.00
2023-02-14T00:56:04.626Z,109.80
2023-02-14T00:58:31.447Z,105.67
2023-02-14T01:00:58.492Z,102.25
2023-02-14T01:03:25.309Z,101.20
2023-02-14T01:05:51.839Z,106.50
2023-02-14T01:08:18.773Z,114.25
2023-02-14T01:10:45.375Z,117.60
2023-02-14T01:13:12.167Z,115.25
2023-02-14T01:15:39.953Z,108.20
2023-02-14T01:18:06.756Z,120.50
2023-02-14T01:20:33.455Z,114.50
2023-02-14T01:22:59.918Z,112.50
2023-02-14T01:25:26.562Z,110.40
2023-02-14T01:27:53.103Z,107.00
2023-02-14T01:30:19.703Z,98.00
2023-02-14T01:32:46.376Z,102.50
2023-02-14T01:35:12.847Z,98.75
2023-02-14T01:37:39.343Z,108.75
2023-02-14T01:40:08.299Z,119.50
2023-02-14T01:42:35.480Z,122.20
2023-02-14T01:45:03.980Z,119.75
2023-02-14T01:47:33.166Z,111.80
2023-02-14T01:50:03.004Z,110.50
2023-02-14T01:52:33.680Z,105.25
2023-02-14T01:55:05.388Z,97.75
2023-02-14T01:57:43.835Z,102.50
2023-02-14T02:00:28.925Z,111.75
2023-02-14T02:02:56.992Z,117.80
2023-02-14T02:05:23.935Z,112.50
2023-02-14T02:07:51.742Z,129.50
2023-02-14T02:10:19.019Z,141.50
2023-02-14T02:12:45.638Z,167.50
2023-02-14T02:15:12.174Z,176.00
2023-02-14T02:17:38.559Z,174.25
2023-02-14T02:20:20.454Z,145.50
2023-02-14T02:22:46.892Z,127.60
2023-02-14T02:25:32.102Z,115.00
2023-02-14T02:28:01.301Z,114.25
2023-02-14T02:30:37.342Z,103.20
2023-02-14T02:33:33.416Z,97.50
2023-02-14T02:35:59.871Z,100.50
2023-02-14T02:38:26.264Z,98.40
2023-02-14T02:41:05.044Z,102.60
2023-02-14T02:43:44.152Z,91.60
2023-02-14T02:46:36.171Z,93.75
2023-02-14T02:49:50.602Z,102.50
2023-02-14T02:52:40.748Z,90.60
2023-02-14T02:55:10.844Z,94.75
2023-02-14T02:57:39.595Z,106.00
2023-02-14T03:00:07.862Z,95.25
2023-02-14T03:03:07.841Z,101.00
2023-02-14T03:05:35.083Z,103.00
2023-02-14T03:08:01.539Z,102.00
2023-02-14T03:10:30.208Z,100.20
2023-02-14T03:12:59.630Z,98.00
2023-02-14T03:15:55.618Z,103.50
2023-02-14T03:18:40.831Z,113.50
2023-02-14T03:21:25.912Z,104.40
2023-02-14T03:24:02.461Z,102.50
2023-02-14T03:26:38.003Z,105.00
2023-02-14T03:29:18.445Z,102.75
2023-02-14T03:32:03.829Z,96.75
2023-02-14T03:34:35.818Z,106.75
2023-02-14T03:37:11.142Z,104.00
2023-02-14T03:39:37.555Z,99.25
2023-02-14T03:42:07.622Z,99.80
2023-02-14T03:44:35.675Z,99.25
2023-02-14T03:47:08.933Z,97.25
2023-02-14T03:49:39.110Z,94.25
2023-02-14T03:52:08.073Z,106.67
2023-02-14T03:54:35.750Z,94.33
2023-02-14T03:57:05.562Z,95.40
2023-02-14T03:59:32.085Z,95.40
2023-02-14T04:02:06.167Z,104.80
2023-02-14T04:04:35.556Z,97.33
2023-02-14T04:07:12.421Z,98.60
2023-02-14T04:09:38.931Z,100.25
2023-02-14T04:12:05.469Z,92.00
2023-02-14T04:14:31.970Z,93.33
2023-02-14T04:17:16.946Z,96.25
2023-02-14T04:19:43.440Z,90.60
2023-02-14T04:22:09.936Z,95.40
2023-02-14T04:24:36.400Z,98.40
2023-02-14T04:27:21.306Z,104.00
2023-02-14T04:29:48.839Z,99.50
2023-02-14T04:32:17.088Z,90.50
2023-02-14T04:34:43.751Z,97.25
2023-02-14T04:37:10.616Z,96.20
2023-02-14T04:39:37.500Z,92.60
2023-02-14T04:42:04.934Z,98.25
2023-02-14T04:44:31.572Z,88.20
2023-02-14T04:46:58.018Z,93.75
2023-02-14T04:49:24.487Z,88.40
2023-02-14T04:51:51.068Z,88.50
2023-02-14T04:54:17.543Z,91.00
2023-02-14T04:56:43.968Z,94.00
2023-02-14T04:59:10.458Z,87.60
2023-02-14T05:01:37.040Z,99.00
2023-02-14T05:04:03.661Z,97.75
2023-02-14T05:06:30.125Z,91.50
2023-02-14T05:08:56.792Z,89.50
2023-02-14T05:11:23.660Z,98.60
2023-02-14T05:13:50.247Z,107.75
2023-02-14T05:16:16.715Z,103.75
2023-02-14T05:18:43.222Z,104.80
2023-02-14T05:21:09.755Z,145.00
2023-02-14T05:23:36.299Z,144.50
2023-02-14T05:26:02.779Z,145.00
2023-02-14T05:28:29.247Z,121.25
2023-02-14T05:30:57.062Z,111.40
2023-02-14T05:33:23.632Z,113.20
2023-02-14T05:35:50.407Z,130.00
2023-02-14T05:38:17.360Z,157.25
2023-02-14T05:40:43.894Z,135.00
2023-02-14T05:43:10.686Z,154.25
2023-02-14T05:45:37.571Z,184.50
2023-02-14T05:48:04.017Z,146.00
2023-02-14T05:50:30.530Z,116.75
2023-02-14T05:52:57.080Z,106.50
2023-02-14T05:55:24.739Z,96.75
2023-02-14T05:57:51.168Z,93.40
2023-02-14T06:00:18.232Z,115.40
2023-02-14T06:02:44.687Z,170.00
2023-02-14T06:05:11.161Z,150.50
2023-02-14T06:07:37.659Z,141.00
2023-02-14T06:10:04.204Z,148.00
2023-02-14T06:12:30.694Z,145.50
2023-02-14T06:14:57.208Z,116.25
2023-02-14T06:17:23.728Z,99.75
2023-02-14T06:19:50.181Z,119.50
2023-02-14T06:22:16.656Z,101.75
2023-02-14T06:24:43.186Z,95.50
2023-02-14T06:27:09.690Z,100.00
2023-02-14T06:29:36.132Z,89.40
2023-02-14T06:32:06.846Z,86.40
2023-02-14T06:34:33.919Z,84.00
2023-02-14T06:37:00.773Z,103.50
2023-02-14T06:39:27.359Z,104.80
2023-02-14T06:41:53.835Z,89.00
2023-02-14T06:44:20.344Z,89.50
2023-02-14T06:46:46.806Z,129.20
2023-02-14T06:49:13.278Z,123.50
2023-02-14T06:51:39.901Z,152.75
2023-02-14T06:54:06.448Z,128.60
2023-02-14T06:56:33.076Z,123.25
2023-02-14T06:58:59.586Z,119.00
2023-02-14T07:01:26.122Z,109.80
2023-02-14T07:03:52.672Z,104.25
2023-02-14T07:06:19.192Z,105.80
2023-02-14T07:08:45.754Z,100.75
2023-02-14T07:11:12.195Z,104.20
2023-02-14T07:13:38.688Z,142.40
2023-02-14T07:16:05.396Z,136.40
2023-02-14T07:18:32.100Z,126.75
2023-02-14T07:20:58.943Z,111.67
2023-02-14T07:23:25.542Z,133.20
2023-02-14T07:25:51.990Z,126.50
2023-02-14T07:28:18.764Z,161.00
2023-02-14T07:30:45.304Z,133.80
2023-02-14T07:33:12.357Z,109.25
2023-02-14T07:35:38.882Z,107.60
2023-02-14T07:38:05.460Z,95.50
2023-02-14T07:40:31.964Z,98.75
2023-02-14T07:42:58.787Z,99.80
2023-02-14T07:45:25.453Z,120.50
2023-02-14T07:47:53.388Z,100.00
2023-02-14T07:50:20.398Z,103.50
2023-02-14T07:52:47.322Z,78.25
2023-02-14T07:55:13.936Z,73.50
2023-02-14T07:57:40.372Z,70.50
2023-02-14T08:00:07.542Z,73.00
2023-02-14T08:02:34.159Z,75.25
2023-02-14T08:05:00.661Z,74.00
2023-02-14T08:07:27.181Z,73.50
2023-02-14T08:09:53.638Z,76.75
2023-02-14T08:12:38.652Z,72.00
2023-02-14T08:15:23.585Z,70.60
2023-02-14T08:17:50.022Z,66.40
2023-02-14T08:20:16.465Z,69.50
2023-02-14T08:22:42.975Z,65.50
2023-02-14T08:25:09.424Z,67.00
2023-02-14T08:27:35.921Z,67.40
2023-02-14T08:30:02.443Z,63.00
2023-02-14T08:32:29.085Z,69.25
2023-02-14T08:34:55.649Z,65.25
2023-02-14T08:37:22.117Z,62.25
2023-02-14T08:39:48.532Z,60.80
2023-02-14T08:42:14.998Z,64.25
2023-02-14T08:44:41.446Z,63.25
2023-02-14T08:47:07.979Z,62.20
2023-02-14T08:49:34.689Z,63.25
2023-02-14T08:52:01.121Z,63.00
2023-02-14T08:54:27.572Z,65.20
2023-02-14T08:56:54.097Z,60.80
2023-02-14T08:59:20.560Z,62.50
2023-02-14T09:01:47.038Z,61.40
2023-02-14T09:04:13.584Z,60.25
2023-02-14T09:06:40.222Z,63.50
2023-02-14T09:09:06.920Z,60.25
2023-02-14T09:11:33.626Z,63.00
2023-02-14T09:14:00.116Z,61.00
2023-02-14T09:16:26.613Z,62.00
2023-02-14T09:18:53.679Z,65.00
2023-02-14T09:21:22.055Z,63.00
2023-02-14T09:23:48.575Z,63.00
2023-02-14T09:26:16.427Z,65.60
2023-02-14T09:28:43.214Z,59.75
2023-02-14T09:31:09.887Z,64.20
2023-02-14T09:33:36.675Z,62.25
2023-02-14T09:36:21.712Z,57.50
2023-02-14T09:38:48.206Z,63.00
2023-02-14T09:41:30.037Z,62.50
2023-02-14T09:44:01.300Z,59.80
2023-02-14T09:46:29.045Z,62.40
2023-02-14T09:48:56.304Z,63.60
2023-02-14T09:51:25.514Z,60.75
2023-02-14T09:53:54.496Z,66.00
2023-02-14T09:56:20.995Z,63.60
2023-02-14T09:58:57.156Z,63.00
2023-02-14T10:01:26.528Z,60.00
2023-02-14T10:04:05.069Z,61.20
2023-02-14T10:06:46.723Z,57.00
2023-02-14T10:09:18.927Z,54.75
2023-02-14T10:11:47.546Z,96.50
2023-02-14T10:14:29.732Z,62.75
2023-02-14T10:17:07.261Z,62.40
2023-02-14T10:19:56.099Z,58.00
2023-02-14T10:22:38.459Z,59.50
2023-02-14T10:25:14.994Z,70.25
2023-02-14T10:27:46.033Z,62.50
2023-02-14T10:30:17.107Z,62.25
2023-02-14T10:32:46.646Z,58.25
2023-02-14T10:35:36.503Z,63.60
2023-02-14T10:38:21.660Z,53.50
2023-02-14T10:40:48.203Z,52.25
2023-02-14T10:43:15.472Z,55.00
2023-02-14T10:45:46.826Z,52.00
2023-02-14T10:48:16.793Z,56.50
2023-02-14T10:50:43.228Z,53.75
2023-02-14T10:53:09.861Z,43.25
2023-02-14T10:55:42.140Z,52.20
2023-02-14T10:58:12.031Z,49.00
2023-02-14T11:00:41.139Z,54.60
2023-02-14T11:03:08.885Z,55.00
2023-02-14T11:05:35.396Z,40.20
2023-02-14T11:08:02.337Z,38.00
2023-02-14T11:10:33.040Z,38.60
2023-02-14T11:12:59.755Z,51.75
2023-02-14T11:15:28.978Z,45.75
2023-02-14T11:18:07.955Z,40.00
2023-02-14T11:20:34.477Z,37.60
2023-02-14T11:23:00.987Z,37.25
2023-02-14T11:25:29.050Z,35.60
2023-02-14T11:28:06.184Z,42.40
2023-02-14T11:30:39.171Z,40.75
2023-02-14T11:33:07.130Z,38.50
2023-02-14T11:35:37.193Z,42.00
2023-02-14T11:38:22.282Z,42.00
2023-02-14T11:40:55.155Z,43.50
2023-02-14T11:43:31.037Z,34.00
2023-02-14T11:46:06.543Z,41.00
2023-02-14T11:48:39.049Z,39.20
2023-02-14T11:51:10.486Z,40.75
2023-02-14T11:53:40.072Z,45.25
2023-02-14T11:56:06.643Z,40.60
2023-02-14T11:58:39.140Z,35.40
2023-02-14T12:01:06.316Z,34.40
2023-02-14T12:03:38.592Z,36.00
2023-02-14T12:06:05.607Z,35.25
2023-02-14T12:08:32.338Z,37.60
2023-02-14T12:11:06.521Z,40.25
2023-02-14T12:13:33.509Z,35.50
2023-02-14T12:16:00.586Z,33.50
2023-02-14T12:18:30.071Z,32.00
2023-02-14T12:20:59.939Z,35.00
2023-02-14T12:23:35.646Z,37.50
2023-02-14T12:26:22.348Z,32.75
2023-02-14T12:28:51.684Z,34.20
2023-02-14T12:31:19.012Z,35.60
2023-02-14T12:33:47.537Z,34.50
2023-02-14T12:36:17.831Z,39.50
2023-02-14T12:39:03.758Z,35.25
2023-02-14T12:41:30.253Z,33.00
2023-02-14T12:43:58.535Z,36.00
2023-02-14T12:46:25.029Z,38.00
2023-02-14T12:48:51.577Z,43.25
2023-02-14T12:51:23.406Z,36.00
2023-02-14T12:53:49.863Z,37.25
2023-02-14T12:56:19.289Z,38.00
2023-02-14T12:58:51.867Z,35.50
2023-02-14T13:01:39.085Z,34.00
2023-02-14T13:04:15.148Z,39.00
2023-02-14T13:06:44.341Z,39.25
2023-02-14T13:09:10.747Z,37.00
2023-02-14T13:11:55.552Z,40.75
2023-02-14T13:14:40.717Z,33.75
2023-02-14T13:17:16.318Z,45.25
2023-02-14T13:20:00.224Z,36.00
2023-02-14T13:22:27.523Z,45.75
2023-02-14T13:24:57.635Z,44.00
2023-02-14T13:27:36.468Z,44.60
2023-02-14T13:30:16.399Z,44.00
2023-02-14T13:32:45.426Z,46.80
2023-02-14T13:35:20.036Z,42.00
2023-02-14T13:37:49.957Z,43.80
2023-02-14T13:40:18.828Z,39.80
2023-02-14T13:42:48.600Z,45.50
2023-02-14T13:45:30.631Z,44.00
2023-02-14T13:48:06.656Z,48.00
2023-02-14T13:50:34.956Z,39.40
2023-02-14T13:53:01.486Z,44.20
2023-02-14T13:55:32.752Z,45.40
2023-02-14T13:58:03.808Z,49.00
2023-02-14T14:00:43.699Z,46.60
2023-02-14T14:03:15.221Z,44.60
2023-02-14T14:05:57.032Z,43.20
2023-02-14T14:08:23.730Z,41.50
2023-02-14T14:10:51.114Z,40.50
2023-02-14T14:13:36.139Z,46.50
2023-02-14T14:16:28.333Z,42.40
2023-02-14T14:18:58.042Z,41.00
2023-02-14T14:21:34.908Z,43.00
2023-02-14T14:24:16.786Z,44.00
2023-02-14T14:26:45.617Z,45.40
2023-02-14T14:29:20.439Z,41.00
2023-02-14T14:31:47.712Z,42.20
2023-02-14T14:34:19.298Z,42.75
2023-02-14T14:36:46.412Z,38.00
2023-02-14T14:39:12.982Z,33.25
2023-02-14T14:41:40.340Z,42.20
2023-02-14T14:44:06.969Z,38.50
2023-02-14T14:46:33.628Z,36.20
2023-02-14T14:49:00.216Z,36.50
2023-02-14T14:51:34.740Z,37.50
2023-02-14T14:54:03.507Z,32.80
2023-02-14T14:56:32.466Z,31.50
2023-02-14T14:59:15.512Z,27.00
2023-02-14T15:01:44.104Z,28.00
2023-02-14T15:04:25.176Z,33.50
2023-02-14T15:06:51.981Z,27.25
2023-02-14T15:09:31.680Z,24.00
2023-02-14T15:12:18.099Z,28.25
2023-02-14T15:14:46.410Z,27.50
2023-02-14T15:17:20.622Z,22.00
2023-02-14T15:19:50.964Z,18.40
2023-02-14T15:22:20.140Z,18.40
2023-02-14T15:24:46.905Z,20.00
2023-02-14T15:27:18.179Z,22.00
2023-02-14T15:29:56.824Z,27.00
2023-02-14T15:32:24.325Z,17.40
2023-02-14T15:34:51.818Z,18.80
2023-02-14T15:37:19.142Z,17.00
2023-02-14T15:39:49.455Z,21.75
2023-02-14T15:42:36.153Z,16.75
2023-02-14T15:45:22.594Z,18.00
2023-02-14T15:47:51.092Z,20.00
2023-02-14T15:50:25.226Z,20.40
2023-02-14T15:52:56.498Z,22.50
2023-02-14T15:55:25.255Z,21.00
2023-02-14T15:57:56.668Z,20.60
2023-02-14T16:00:24.034Z,18.50
2023-02-14T16:02:56.511Z,20.40
2023-02-14T16:05:24.393Z,22.20
2023-02-14T16:08:04.924Z,26.20
2023-02-14T16:10:31.406Z,21.60
2023-02-14T16:13:17.665Z,25.50
2023-02-14T16:15:58.397Z,22.60
2023-02-14T16:18:43.733Z,27.00
2023-02-14T16:21:17.766Z,36.50
2023-02-14T16:23:45.670Z,25.00
2023-02-14T16:26:12.229Z,27.50
2023-02-14T16:28:38.890Z,26.75
2023-02-14T16:31:10.227Z,27.00
2023-02-14T16:33:38.732Z,26.20
2023-02-14T16:36:26.169Z,26.25
2023-02-14T16:38:53.086Z,31.00
2023-02-14T16:41:21.416Z,27.75
2023-02-14T16:43:48.290Z,25.75
2023-02-14T16:46:16.038Z,26.00
2023-02-14T16:48:43.274Z,29.80
2023-02-14T16:51:12.613Z,26.00
2023-02-14T16:53:39.315Z,26.20
2023-02-14T16:56:06.028Z,28.60
2023-02-14T16:58:34.893Z,24.50
2023-02-14T17:01:01.701Z,31.25
2023-02-14T17:03:28.398Z,30.25
2023-02-14T17:05:55.848Z,32.75
2023-02-14T17:08:22.357Z,42.60
2023-02-14T17:10:49.264Z,40.60
2023-02-14T17:13:21.919Z,40.50
2023-02-14T17:15:48.816Z,47.25
2023-02-14T17:18:17.199Z,40.00
2023-02-14T17:20:43.808Z,26.25
2023-02-14T17:23:10.285Z,25.80
2023-02-14T17:25:36.844Z,34.50
2023-02-14T17:28:03.439Z,34.80
2023-02-14T17:30:30.011Z,35.00
2023-02-14T17:32:56.606Z,24.60
2023-02-14T17:35:23.112Z,28.00
2023-02-14T17:37:49.545Z,30.40
2023-02-14T17:40:16.207Z,42.50
2023-02-14T17:42:42.669Z,45.67
2023-02-14T17:45:11.832Z,38.20
2023-02-14T17:47:39.620Z,44.00
2023-02-14T17:50:06.675Z,40.00
2023-02-14T17:52:33.135Z,49.50
2023-02-14T17:55:00.322Z,48.75
2023-02-14T17:57:26.842Z,38.00
2023-02-14T17:59:53.704Z,36.00
2023-02-14T18:02:20.246Z,32.40
2023-02-14T18:04:48.358Z,38.00
2023-02-14T18:07:14.872Z,41.00
2023-02-14T18:09:41.414Z,38.50
2023-02-14T18:12:09.390Z,39.25
2023-02-14T18:14:38.809Z,51.00
2023-02-14T18:17:06.229Z,49.00
2023-02-14T18:19:32.769Z,46.00
2023-02-14T18:21:59.928Z,49.00
2023-02-14T18:24:26.431Z,53.80
2023-02-14T18:26:53.584Z,44.20
2023-02-14T18:29:20.427Z,34.75
2023-02-14T18:31:47.306Z,36.00
2023-02-14T18:34:13.848Z,34.67
2023-02-14T18:36:41.912Z,49.50
2023-02-14T18:39:09.329Z,53.75
2023-02-14T18:41:35.927Z,51.75
2023-02-14T18:44:02.472Z,49.50
2023-02-14T18:46:33.941Z,49.50
2023-02-14T18:49:00.499Z,56.50
2023-02-14T18:51:28.368Z,56.00
2023-02-14T18:53:59.066Z,52.00
2023-02-14T18:56:27.869Z,55.00
2023-02-14T18:58:59.249Z,53.50
2023-02-14T19:01:29.567Z,53.50
2023-02-14T19:03:56.845Z,50.00
2023-02-14T19:06:23.565Z,53.00
2023-02-14T19:08:50.144Z,57.80
2023-02-14T19:11:18.459Z,57.00
2023-02-14T19:13:46.060Z,54.00
2023-02-14T19:16:14.222Z,66.60
2023-02-14T19:18:40.953Z,66.00
2023-02-14T19:21:11.351Z,67.00
2023-02-14T19:23:38.075Z,69.75
2023-02-14T19:26:15.361Z,64.00
2023-02-14T19:28:42.304Z,58.00
2023-02-14T19:31:08.906Z,58.00
2023-02-14T19:33:39.792Z,65.75
2023-02-14T19:36:07.525Z,72.00
2023-02-14T19:38:34.541Z,73.00
2023-02-14T19:41:01.390Z,76.60
2023-02-14T19:43:28.462Z,71.50
2023-02-14T19:45:54.904Z,77.80
2023-02-14T19:48:21.368Z,85.20
2023-02-14T19:50:47.884Z,128.75
2023-02-14T19:53:14.736Z,132.80
2023-02-14T19:55:41.521Z,147.00
2023-02-14T19:58:07.990Z,140.80
2023-02-14T20:00:37.035Z,173.00
2023-02-14T20:03:03.981Z,161.00
2023-02-14T20:05:30.453Z,189.25
2023-02-14T20:07:56.978Z,179.40
2023-02-14T20:10:23.683Z,184.80
2023-02-14T20:12:50.235Z,187.20
2023-02-14T20:15:16.824Z,196.00
2023-02-14T20:17:43.371Z,199.50
2023-02-14T20:20:13.742Z,204.75
2023-02-14T20:22:41.166Z,193.50
2023-02-14T20:25:09.060Z,165.20
2023-02-14T20:27:36.244Z,162.00
2023-02-14T20:30:02.817Z,161.50
2023-02-14T20:32:29.377Z,157.25
2023-02-14T20:34:57.244Z,172.80
2023-02-14T20:37:24.488Z,147.00
2023-02-14T20:39:51.002Z,142.50
2023-02-14T20:42:17.456Z,148.80
2023-02-14T20:44:45.346Z,149.75
2023-02-14T20:47:11.997Z,148.75
2023-02-14T20:49:39.520Z,143.80
2023-02-14T20:52:06.141Z,138.00
2023-02-14T20:54:32.584Z,107.00
2023-02-14T20:56:59.106Z,94.25
2023-02-14T20:59:29.053Z,91.00
2023-02-14T21:01:56.781Z,95.60
2023-02-14T21:04:23.716Z,91.00
2023-02-14T21:06:50.346Z,98.75
2023-02-14T21:09:18.667Z,109.25
2023-02-14T21:11:45.170Z,101.00
2023-02-14T21:14:11.971Z,99.25
2023-02-14T21:16:38.500Z,97.20
2023-02-14T21:19:05.932Z,99.80
2023-02-14T21:21:36.582Z,93.40
2023-02-14T21:24:04.957Z,87.00
2023-02-14T21:26:31.526Z,99.80
2023-02-14T21:28:58.072Z,89.25
2023-02-14T21:31:27.458Z,86.50
2023-02-14T21:33:55.373Z,71.25
2023-02-14T21:36:22.666Z,68.40
2023-02-14T21:38:49.603Z,72.25
2023-02-14T21:41:18.560Z,65.50
2023-02-14T21:43:45.798Z,64.60
2023-02-14T21:46:13.346Z,68.25
2023-02-14T21:48:58.257Z,62.00
2023-02-14T21:51:25.168Z,64.75
2023-02-14T21:53:51.781Z,65.25
2023-02-14T21:56:19.865Z,67.25
2023-02-14T21:58:47.733Z,64.25
2023-02-14T22:01:15.412Z,62.80
2023-02-14T22:03:41.942Z,67.20
2023-02-14T22:06:08.583Z,67.25
2023-02-14T22:08:35.014Z,65.00
2023-02-14T22:11:04.960Z,66.00
2023-02-14T22:13:31.474Z,64.00
2023-02-14T22:16:05.628Z,67.00
2023-02-14T22:18:32.388Z,63.00
2023-02-14T22:21:06.954Z,63.20
2023-02-14T22:23:34.318Z,63.00
2023-02-14T22:26:20.318Z,67.00
2023-02-14T22:28:47.996Z,69.50
2023-02-14T22:31:15.493Z,67.00
2023-02-14T22:33:42.068Z,67.25
2023-02-14T22:36:08.926Z,63.00
2023-02-14T22:38:36.037Z,63.00
2023-02-14T22:41:10.021Z,66.50
2023-02-14T22:43:37.521Z,68.80
2023-02-14T22:46:05.561Z,66.80
2023-02-14T22:48:33.673Z,73.50
2023-02-14T22:51:11.045Z,75.50
2023-02-14T22:53:38.122Z,81.75
2023-02-14T22:56:18.504Z,88.00
2023-02-14T22:58:45.111Z,83.25
2023-02-14T23:01:19.979Z,87.25
2023-02-14T23:03:46.895Z,93.20
2023-02-14T23:06:13.769Z,97.50
2023-02-14T23:08:44.125Z,85.00
2023-02-14T23:11:12.249Z,82.60
2023-02-14T23:13:57.385Z,81.75
2023-02-14T23:16:43.346Z,95.00
2023-02-14T23:19:32.566Z,90.50
2023-02-14T23:22:01.766Z,96.25
2023-02-14T23:24:28.252Z,93.50
2023-02-14T23:26:55.592Z,93.50
2023-02-14T23:29:22.326Z,86.50
2023-02-14T23:31:48.878Z,88.00
2023-02-14T23:34:15.746Z,88.50
2023-02-14T23:36:42.272Z,88.75
2023-02-14T23:39:08.986Z,78.00
2023-02-14T23:41:47.705Z,80.20
2023-02-14T23:44:25.027Z,88.25
2023-02-14T23:46:53.145Z,95.00
2023-02-14T23:49:20.073Z,93.40
2023-02-14T23:51:47.639Z,95.80
2023-02-14T23:54:14.413Z,104.25
2023-02-14T23:56:41.182Z,94.20
2023-02-14T23:59:08.111Z,101.50
